createdAt,value
2019-04-21T00:00:39.570Z,21.77
2019-04-21T00:02:44.277Z,21.48
2019-04-21T00:04:54.992Z,20.72
2019-04-21T00:07:10.352Z,19.23
2019-04-21T00:11:18.564Z,19.82
2019-04-21T00:13:12.378Z,19.42
2019-04-21T00:15:18.091Z,19.30
2019-04-21T00:17:14.493Z,18.67
2019-04-21T00:19:22.641Z,18.30
2019-04-21T00:21:31.540Z,17.25
2019-04-21T00:23:41.289Z,17.10
2019-04-21T00:25:38.831Z,18.02
2019-04-21T00:27:46.499Z,17.60
2019-04-21T00:29:51.766Z,16.55
2019-04-21T00:31:56.035Z,17.27
2019-04-21T00:33:44.694Z,17.30
2019-04-21T00:35:52.902Z,16.15
2019-04-21T00:38:08.238Z,16.80
2019-04-21T00:40:16.168Z,18.15
2019-04-21T00:42:16.857Z,17.67
2019-04-21T00:44:11.520Z,18.98
2019-04-21T00:46:11.957Z,19.15
2019-04-21T00:48:29.960Z,18.60
2019-04-21T00:50:34.265Z,19.65
2019-04-21T00:55:01.863Z,20.08
2019-04-21T00:56:57.912Z,18.67
2019-04-21T00:58:59.288Z,16.93
2019-04-21T01:01:01.953Z,17.62
2019-04-21T01:03:13.067Z,18.80
2019-04-21T01:05:18.583Z,16.93
2019-04-21T01:07:23.128Z,18.65
2019-04-21T01:09:28.998Z,17.73
2019-04-21T01:11:31.854Z,17.52
2019-04-21T01:13:41.291Z,18.02
2019-04-21T01:15:43.932Z,17.80
2019-04-21T01:17:40.644Z,17.62
2019-04-21T01:19:48.303Z,18.40
2019-04-21T01:21:28.602Z,18.48
2019-04-21T01:23:30.028Z,16.67
2019-04-21T01:25:38.170Z,18.27
2019-04-21T01:28:06.376Z,17.10
2019-04-21T01:30:02.062Z,17.73
2019-04-21T01:32:08.572Z,17.87
2019-04-21T01:34:03.275Z,17.82
2019-04-21T01:36:03.733Z,17.20
2019-04-21T01:38:19.117Z,17.17
2019-04-21T01:40:25.675Z,17.25
2019-04-21T01:42:15.730Z,18.75
2019-04-21T01:44:24.963Z,19.82
2019-04-21T01:46:22.517Z,18.67
2019-04-21T01:48:24.121Z,19.15
2019-04-21T01:50:29.968Z,19.92
2019-04-21T01:52:47.339Z,20.55
2019-04-21T01:54:56.045Z,17.87
2019-04-21T01:56:58.504Z,16.73
2019-04-21T01:58:51.432Z,16.65
2019-04-21T02:01:03.232Z,15.28
2019-04-21T02:03:28.520Z,16.10
2019-04-21T02:05:17.207Z,16.62
2019-04-21T02:07:15.163Z,14.60
2019-04-21T02:09:14.877Z,17.20
2019-04-21T02:11:23.191Z,17.17
2019-04-21T02:13:23.248Z,17.55
2019-04-21T02:15:33.011Z,17.20
2019-04-21T02:17:28.082Z,17.15
2019-04-21T02:19:31.583Z,18.98
2019-04-21T02:21:36.864Z,17.95
2019-04-21T02:25:51.093Z,17.48
2019-04-21T02:27:57.729Z,18.17
2019-04-21T02:30:02.720Z,15.95
2019-04-21T02:32:10.627Z,16.15
2019-04-21T02:34:08.137Z,15.00
2019-04-21T02:38:23.274Z,15.72
2019-04-21T02:40:25.566Z,16.07
2019-04-21T02:42:22.248Z,14.58
2019-04-21T02:44:28.296Z,14.58
2019-04-21T02:48:39.059Z,13.78
2019-04-21T02:50:43.364Z,14.25
2019-04-21T02:56:55.055Z,16.10
2019-04-21T02:59:17.049Z,15.20
2019-04-21T03:01:25.903Z,14.85
2019-04-21T03:06:00.363Z,16.37
2019-04-21T03:10:09.473Z,16.60
2019-04-21T03:12:11.208Z,15.35
2019-04-21T03:14:24.979Z,15.88
2019-04-21T03:16:18.447Z,16.45
2019-04-21T03:20:16.998Z,15.40
2019-04-21T03:22:22.564Z,14.75
2019-04-21T03:24:18.410Z,15.70
2019-04-21T03:26:36.638Z,18.70
2019-04-21T03:28:32.432Z,19.15
2019-04-21T03:38:49.173Z,16.30
2019-04-21T03:40:47.373Z,16.93
2019-04-21T03:42:59.748Z,18.52
2019-04-21T03:45:06.965Z,19.98
2019-04-21T03:47:08.361Z,19.85
2019-04-21T03:49:04.319Z,20.17
2019-04-21T03:51:13.850Z,19.80
2019-04-21T03:57:32.418Z,18.42
2019-04-21T03:59:16.153Z,17.70
2019-04-21T04:01:32.779Z,18.12
2019-04-21T04:04:06.987Z,17.00
2019-04-21T04:06:20.645Z,16.50
2019-04-21T04:10:47.140Z,10.93
2019-04-21T04:14:44.163Z,16.55
2019-04-21T04:18:53.108Z,15.98
2019-04-21T04:20:51.235Z,15.38
2019-04-21T04:22:56.433Z,16.75
2019-04-21T04:25:04.936Z,16.82
2019-04-21T04:27:11.166Z,17.95
2019-04-21T04:29:59.426Z,19.73
2019-04-21T04:31:17.953Z,18.35
2019-04-21T04:33:21.012Z,18.77
2019-04-21T04:35:34.243Z,18.52
2019-04-21T04:37:26.322Z,18.40
2019-04-21T04:45:41.795Z,15.30
2019-04-21T04:47:47.674Z,17.02
2019-04-21T04:53:47.149Z,15.65
2019-04-21T04:55:58.855Z,16.25
2019-04-21T04:57:59.031Z,16.55
2019-04-21T05:02:11.608Z,20.08
2019-04-21T05:04:08.088Z,19.35
2019-04-21T05:08:49.365Z,20.57
2019-04-21T05:10:38.526Z,22.22
2019-04-21T05:12:33.752Z,20.90
2019-04-21T05:14:39.005Z,19.35
2019-04-21T05:16:55.735Z,19.87
2019-04-21T05:18:52.798Z,18.57
2019-04-21T05:20:52.261Z,17.52
2019-04-21T05:22:44.239Z,18.62
2019-04-21T05:24:43.993Z,18.12
2019-04-21T05:26:43.337Z,19.35
2019-04-21T05:28:44.808Z,18.45
2019-04-21T05:31:06.224Z,19.85
2019-04-21T05:33:27.566Z,18.98
2019-04-21T05:35:45.051Z,21.65
2019-04-21T05:37:56.662Z,21.80
2019-04-21T05:39:57.239Z,21.48
2019-04-21T05:41:53.756Z,22.85
2019-04-21T05:44:09.905Z,22.85
2019-04-21T05:46:13.331Z,23.98
2019-04-21T05:48:28.876Z,23.57
2019-04-21T05:50:23.850Z,24.67
2019-04-21T05:52:27.554Z,24.72
2019-04-21T05:54:38.878Z,24.23
2019-04-21T05:56:36.616Z,24.82
2019-04-21T05:58:46.630Z,25.23
2019-04-21T06:01:10.748Z,24.82
2019-04-21T06:02:57.755Z,24.52
2019-04-21T06:05:18.519Z,24.40
2019-04-21T06:07:13.242Z,25.08
2019-04-21T06:09:13.132Z,23.47
2019-04-21T06:11:23.305Z,22.00
2019-04-21T06:13:19.882Z,24.50
2019-04-21T06:15:21.356Z,23.80
2019-04-21T06:17:23.640Z,25.82
2019-04-21T06:19:35.175Z,22.82
2019-04-21T06:21:31.456Z,23.00
2019-04-21T06:23:32.759Z,24.18
2019-04-21T06:27:50.757Z,22.73
2019-04-21T06:29:46.756Z,22.90
2019-04-21T06:32:16.338Z,24.65
2019-04-21T06:38:03.783Z,25.17
2019-04-21T06:40:15.695Z,25.00
2019-04-21T06:42:22.565Z,25.37
2019-04-21T06:44:12.911Z,26.40
2019-04-21T06:46:20.089Z,26.40
2019-04-21T06:48:24.568Z,27.55
2019-04-21T06:50:22.847Z,28.67
2019-04-21T06:52:46.222Z,29.15
2019-04-21T06:54:33.916Z,27.35
2019-04-21T06:56:36.614Z,28.67
2019-04-21T06:58:35.621Z,28.07
2019-04-21T07:00:35.848Z,26.75
2019-04-21T07:04:50.116Z,27.10
2019-04-21T07:09:02.536Z,26.77
2019-04-21T07:10:59.464Z,25.00
2019-04-21T07:12:57.589Z,24.23
2019-04-21T07:15:04.028Z,24.75
2019-04-21T07:17:12.617Z,25.48
2019-04-21T07:21:13.782Z,23.67
2019-04-21T07:23:16.391Z,24.05
2019-04-21T07:25:23.270Z,24.67
2019-04-21T07:27:29.204Z,24.55
2019-04-21T07:29:34.859Z,23.52
2019-04-21T07:31:41.141Z,24.30
2019-04-21T07:33:53.946Z,23.95
2019-04-21T07:35:41.191Z,24.23
2019-04-21T07:37:40.808Z,23.30
2019-04-21T07:39:43.949Z,23.18
2019-04-21T07:41:47.106Z,23.00
2019-04-21T07:43:57.505Z,22.67
2019-04-21T07:45:58.614Z,23.18
2019-04-21T07:48:09.571Z,22.10
2019-04-21T07:50:28.584Z,23.20
2019-04-21T07:52:42.998Z,22.45
2019-04-21T07:54:49.247Z,22.70
2019-04-21T07:56:33.181Z,22.65
2019-04-21T07:58:54.704Z,22.05
2019-04-21T08:00:59.352Z,22.85
2019-04-21T08:02:58.343Z,21.80
2019-04-21T08:05:10.225Z,22.87
2019-04-21T08:07:06.319Z,22.62
2019-04-21T08:09:08.984Z,22.40
2019-04-21T08:11:01.727Z,22.55
2019-04-21T08:13:18.758Z,22.22
2019-04-21T08:15:19.501Z,21.82
2019-04-21T08:17:16.416Z,21.93
2019-04-21T08:21:30.830Z,21.87
2019-04-21T08:23:31.912Z,19.02
2019-04-21T08:25:34.923Z,19.48
2019-04-21T08:27:44.234Z,18.52
2019-04-21T08:32:03.062Z,17.87
2019-04-21T08:37:48.143Z,18.00
2019-04-21T08:40:04.443Z,17.48
2019-04-21T08:41:57.177Z,17.27
2019-04-21T08:44:02.228Z,18.27
2019-04-21T08:46:08.221Z,16.97
2019-04-21T08:48:10.243Z,17.65
2019-04-21T08:50:16.253Z,17.60
2019-04-21T08:52:34.686Z,17.15
2019-04-21T08:54:21.507Z,17.30
2019-04-21T08:56:37.195Z,17.10
2019-04-21T08:58:47.819Z,16.60
2019-04-21T09:00:57.785Z,16.80
2019-04-21T09:03:17.850Z,16.30
2019-04-21T09:05:17.553Z,17.20
2019-04-21T09:07:25.838Z,15.45
2019-04-21T09:09:25.889Z,15.03
2019-04-21T09:11:22.229Z,15.48
2019-04-21T09:13:35.113Z,15.50
2019-04-21T09:15:30.900Z,14.78
2019-04-21T09:17:34.066Z,14.60
2019-04-21T09:19:51.744Z,14.53
2019-04-21T09:21:51.617Z,14.18
2019-04-21T09:23:46.932Z,14.00
2019-04-21T09:25:52.322Z,14.53
2019-04-21T09:27:55.443Z,14.35
2019-04-21T09:29:49.203Z,13.25
2019-04-21T09:31:46.810Z,12.68
2019-04-21T09:33:50.851Z,12.35
2019-04-21T09:35:56.537Z,12.85
2019-04-21T09:38:01.023Z,13.10
2019-04-21T09:39:57.841Z,12.53
2019-04-21T09:42:02.835Z,12.75
2019-04-21T09:44:07.815Z,12.55
2019-04-21T09:46:06.709Z,13.62
2019-04-21T09:48:13.286Z,13.13
2019-04-21T09:50:12.050Z,12.65
2019-04-21T09:52:21.013Z,12.68
2019-04-21T09:54:24.944Z,12.73
2019-04-21T09:56:31.223Z,12.03
2019-04-21T09:58:32.852Z,12.30
2019-04-21T10:00:30.697Z,12.53
2019-04-21T10:02:38.776Z,11.75
2019-04-21T10:04:33.784Z,11.15
2019-04-21T10:06:35.122Z,12.60
2019-04-21T10:08:36.624Z,11.20
2019-04-21T10:10:38.374Z,12.25
2019-04-21T10:12:41.144Z,11.93
2019-04-21T10:14:43.027Z,11.80
2019-04-21T10:16:46.484Z,11.85
2019-04-21T10:18:48.199Z,12.23
2019-04-21T10:20:51.184Z,12.30
2019-04-21T10:22:53.134Z,12.18
2019-04-21T10:24:54.561Z,11.80
2019-04-21T10:26:56.071Z,11.08
2019-04-21T10:31:00.858Z,12.28
2019-04-21T10:33:02.257Z,12.55
2019-04-21T10:35:05.496Z,11.90
2019-04-21T10:37:07.127Z,11.68
2019-04-21T10:41:13.347Z,12.23
2019-04-21T10:43:18.949Z,11.68
2019-04-21T10:45:19.016Z,12.13
2019-04-21T10:47:20.648Z,12.50
2019-04-21T10:49:22.614Z,13.22
2019-04-21T10:51:25.289Z,13.40
2019-04-21T10:53:29.106Z,13.90
2019-04-21T10:55:44.741Z,13.28
2019-04-21T10:57:37.818Z,13.03
2019-04-21T10:59:45.684Z,13.22
2019-04-21T11:01:43.045Z,10.63
2019-04-21T11:03:53.128Z,12.95
2019-04-21T11:05:56.816Z,14.35
2019-04-21T11:08:09.020Z,13.00
2019-04-21T11:10:02.462Z,12.53
2019-04-21T11:12:04.112Z,11.38
2019-04-21T11:16:08.897Z,10.90
2019-04-21T11:18:10.294Z,13.00
2019-04-21T11:20:12.914Z,10.80
2019-04-21T11:22:14.941Z,10.65
2019-04-21T11:24:17.833Z,10.32
2019-04-21T11:26:20.007Z,9.60
2019-04-21T11:28:22.775Z,10.10
2019-04-21T11:30:25.533Z,9.85
2019-04-21T11:32:27.385Z,11.12
2019-04-21T11:34:29.265Z,10.38
2019-04-21T11:36:31.358Z,9.68
2019-04-21T11:38:52.746Z,10.18
2019-04-21T11:40:38.086Z,8.58
2019-04-21T11:42:41.885Z,8.90
2019-04-21T11:44:44.941Z,8.93
2019-04-21T11:46:46.672Z,8.58
2019-04-21T11:48:48.378Z,9.05
2019-04-21T11:50:50.919Z,8.33
2019-04-21T11:52:52.834Z,8.65
2019-04-21T11:54:55.448Z,9.18
2019-04-21T11:56:57.044Z,9.08
2019-04-21T11:58:59.555Z,9.93
2019-04-21T12:01:03.471Z,8.90
2019-04-21T12:03:05.788Z,8.13
2019-04-21T12:05:07.579Z,9.00
2019-04-21T12:07:11.290Z,8.73
2019-04-21T12:09:12.776Z,9.10
2019-04-21T12:11:14.030Z,8.68
2019-04-21T12:13:18.281Z,7.42
2019-04-21T12:15:20.762Z,8.33
2019-04-21T12:17:22.188Z,8.70
2019-04-21T12:19:24.927Z,8.65
2019-04-21T12:21:29.386Z,9.33
2019-04-21T12:23:30.207Z,8.03
2019-04-21T12:25:40.853Z,8.65
2019-04-21T12:29:46.108Z,7.85
2019-04-21T12:32:01.364Z,7.53
2019-04-21T12:34:05.765Z,8.28
2019-04-21T12:36:07.418Z,7.47
2019-04-21T12:40:10.721Z,7.67
2019-04-21T12:42:14.433Z,7.65
2019-04-21T12:44:15.807Z,7.97
2019-04-21T12:46:18.104Z,8.10
2019-04-21T12:48:20.106Z,8.00
2019-04-21T12:50:21.643Z,7.25
2019-04-21T12:52:24.006Z,7.28
2019-04-21T12:54:25.889Z,6.75
2019-04-21T12:56:27.593Z,8.10
2019-04-21T12:58:29.342Z,8.18
2019-04-21T13:00:31.258Z,7.60
2019-04-21T13:02:33.780Z,7.20
2019-04-21T13:04:35.768Z,7.80
2019-04-21T13:06:37.506Z,7.92
2019-04-21T13:08:45.579Z,8.50
2019-04-21T13:10:42.362Z,7.47
2019-04-21T13:12:43.992Z,7.72
2019-04-21T13:14:45.425Z,7.42
2019-04-21T13:18:49.285Z,8.28
2019-04-21T13:20:51.768Z,7.58
2019-04-21T13:22:54.324Z,7.05
2019-04-21T13:24:55.895Z,6.95
2019-04-21T13:26:59.777Z,6.62
2019-04-21T13:29:00.613Z,8.68
2019-04-21T13:31:02.327Z,8.10
2019-04-21T13:33:05.081Z,7.55
2019-04-21T13:35:06.989Z,8.45
2019-04-21T13:37:09.639Z,6.78
2019-04-21T13:39:52.233Z,7.17
2019-04-21T13:43:32.977Z,8.80
2019-04-21T13:45:34.454Z,7.60
2019-04-21T13:49:39.126Z,7.00
2019-04-21T13:51:41.597Z,7.05
2019-04-21T13:53:43.936Z,6.80
2019-04-21T13:55:46.720Z,6.53
2019-04-21T13:57:50.233Z,8.05
2019-04-21T13:59:53.121Z,7.10
2019-04-21T14:01:54.501Z,6.97
2019-04-21T14:05:58.298Z,7.25
2019-04-21T14:34:44.096Z,7.90
2019-04-21T14:36:46.656Z,7.08
2019-04-21T14:38:48.158Z,8.58
2019-04-21T14:40:50.332Z,7.70
2019-04-21T14:42:52.070Z,8.53
2019-04-21T14:44:54.707Z,7.62
2019-04-21T14:46:57.985Z,8.90
2019-04-21T14:49:01.351Z,8.58
2019-04-21T14:51:04.668Z,7.37
2019-04-21T14:53:08.099Z,7.30
2019-04-21T14:57:27.300Z,7.22
2019-04-21T14:59:28.996Z,7.65
2019-04-21T15:01:31.474Z,8.75
2019-04-21T15:03:34.226Z,7.75
2019-04-21T15:05:35.660Z,8.68
2019-04-21T15:07:37.171Z,8.08
2019-04-21T15:09:39.635Z,7.60
2019-04-21T15:11:42.207Z,8.88
2019-04-21T15:13:43.990Z,9.05
2019-04-21T15:15:45.723Z,8.40
2019-04-21T15:17:47.073Z,7.97
2019-04-21T15:19:58.230Z,7.33
2019-04-21T15:21:52.625Z,8.53
2019-04-21T15:23:54.155Z,8.38
2019-04-21T15:25:56.507Z,8.20
2019-04-21T15:27:59.040Z,7.30
2019-04-21T15:30:00.703Z,7.67
2019-04-21T15:32:02.035Z,8.20
2019-04-21T15:34:03.415Z,6.78
2019-04-21T15:36:05.094Z,8.63
2019-04-21T15:38:07.606Z,7.65
2019-04-21T15:40:18.219Z,7.75
2019-04-21T15:42:12.653Z,8.05
2019-04-21T15:44:14.597Z,8.45
2019-04-21T15:46:16.215Z,7.25
2019-04-21T15:48:18.243Z,7.65
2019-04-21T15:50:21.333Z,7.20
2019-04-21T15:52:25.238Z,8.00
2019-04-21T15:54:27.261Z,7.12
2019-04-21T15:56:33.306Z,7.17
2019-04-21T15:58:39.032Z,7.08
2019-04-21T16:00:58.988Z,7.08
2019-04-21T16:03:00.473Z,6.33
2019-04-21T16:05:02.854Z,6.78
2019-04-21T16:07:05.810Z,8.40
2019-04-21T16:09:08.532Z,6.90
2019-04-21T16:11:11.353Z,7.90
2019-04-21T16:13:14.005Z,7.35
2019-04-21T16:15:16.637Z,7.20
2019-04-21T16:17:19.157Z,7.85
2019-04-21T16:19:20.574Z,8.43
2019-04-21T16:21:22.241Z,8.80
2019-04-21T16:23:24.511Z,7.05
2019-04-21T16:25:26.777Z,8.40
2019-04-21T16:27:29.517Z,8.23
2019-04-21T16:29:31.306Z,8.18
2019-04-21T16:31:34.100Z,8.20
2019-04-21T16:33:36.817Z,9.40
2019-04-21T16:35:39.967Z,7.17
2019-04-21T16:37:41.629Z,7.67
2019-04-21T16:39:43.373Z,8.15
2019-04-21T16:41:44.713Z,7.53
2019-04-21T16:45:48.900Z,8.00
2019-04-21T16:47:53.563Z,9.13
2019-04-21T16:49:53.948Z,9.00
2019-04-21T16:52:16.237Z,8.48
2019-04-21T16:54:21.870Z,11.85
2019-04-21T16:56:31.210Z,10.53
2019-04-21T16:58:41.024Z,10.15
2019-04-21T17:00:57.346Z,9.35
2019-04-21T17:02:50.539Z,8.93
2019-04-21T17:04:52.137Z,9.68
2019-04-21T17:06:53.512Z,10.75
2019-04-21T17:11:07.557Z,10.43
2019-04-21T17:13:00.037Z,9.20
2019-04-21T17:15:18.702Z,10.43
2019-04-21T17:17:26.808Z,9.60
2019-04-21T17:19:17.304Z,10.58
2019-04-21T17:21:13.189Z,9.00
2019-04-21T17:23:15.682Z,8.85
2019-04-21T17:25:18.516Z,8.95
2019-04-21T17:27:20.802Z,9.65
2019-04-21T17:29:22.812Z,7.87
2019-04-21T17:31:24.594Z,9.25
2019-04-21T17:33:28.304Z,8.48
2019-04-21T17:35:29.367Z,9.43
2019-04-21T17:37:32.324Z,9.03
2019-04-21T17:39:34.555Z,9.08
2019-04-21T17:41:43.432Z,9.18
2019-04-21T17:43:39.593Z,9.68
2019-04-21T17:45:41.437Z,9.20
2019-04-21T17:47:49.905Z,9.43
2019-04-21T17:49:48.765Z,9.15
2019-04-21T17:52:06.368Z,9.35
2019-04-21T17:54:17.559Z,8.23
2019-04-21T17:56:51.074Z,7.70
2019-04-21T17:58:36.025Z,8.38
2019-04-21T18:01:06.572Z,8.88
2019-04-21T18:02:51.527Z,9.18
2019-04-21T18:04:58.453Z,9.50
2019-04-21T18:06:52.876Z,8.28
2019-04-21T18:09:15.568Z,9.13
2019-04-21T18:11:10.355Z,8.95
2019-04-21T18:13:21.017Z,10.40
2019-04-21T18:15:47.058Z,8.35
2019-04-21T18:17:42.983Z,9.38
2019-04-21T18:19:47.447Z,9.83
2019-04-21T18:21:54.560Z,8.28
2019-04-21T18:24:05.721Z,8.68
2019-04-21T18:26:07.153Z,9.15
2019-04-21T18:28:02.811Z,7.45
2019-04-21T18:30:34.032Z,9.85
2019-04-21T18:32:39.165Z,10.23
2019-04-21T18:34:52.645Z,9.83
2019-04-21T18:36:49.932Z,9.88
2019-04-21T18:39:12.553Z,9.85
2019-04-21T18:41:01.435Z,11.88
2019-04-21T18:43:42.165Z,10.98
2019-04-21T18:47:31.854Z,10.25
2019-04-21T18:49:23.423Z,10.30
2019-04-21T18:51:54.192Z,10.13
2019-04-21T18:54:14.873Z,9.93
2019-04-21T18:56:05.662Z,9.23
2019-04-21T18:58:05.168Z,9.88
2019-04-21T19:00:15.391Z,9.65
2019-04-21T19:02:14.267Z,9.25
2019-04-21T19:04:20.113Z,9.68
2019-04-21T19:06:26.719Z,8.70
2019-04-21T19:08:38.926Z,10.23
2019-04-21T19:10:49.019Z,9.60
2019-04-21T19:13:16.225Z,9.10
2019-04-21T19:14:46.112Z,9.55
2019-04-21T19:17:13.860Z,9.03
2019-04-21T19:19:09.794Z,8.65
2019-04-21T19:20:53.830Z,9.25
2019-04-21T19:22:57.243Z,9.55
2019-04-21T19:25:07.282Z,9.85
2019-04-21T19:27:12.102Z,9.93
2019-04-21T19:29:19.629Z,9.98
2019-04-21T19:31:20.902Z,10.20
2019-04-21T19:33:16.048Z,9.93
2019-04-21T19:35:07.466Z,10.90
2019-04-21T19:37:13.357Z,10.58
2019-04-21T19:39:23.730Z,10.43
2019-04-21T19:41:27.999Z,11.03
2019-04-21T19:43:41.632Z,10.95
2019-04-21T19:45:33.831Z,11.25
2019-04-21T19:47:44.412Z,12.40
2019-04-21T19:49:49.972Z,11.97
2019-04-21T19:51:43.665Z,11.90
2019-04-21T19:53:48.116Z,12.53
2019-04-21T19:55:38.401Z,12.20
2019-04-21T19:57:41.050Z,12.70
2019-04-21T19:59:48.088Z,12.88
2019-04-21T20:01:48.311Z,12.50
2019-04-21T20:03:55.519Z,12.53
2019-04-21T20:06:02.151Z,12.80
2019-04-21T20:08:12.890Z,13.58
2019-04-21T20:10:25.654Z,13.98
2019-04-21T20:12:22.096Z,14.53
2019-04-21T20:14:46.739Z,14.35
2019-04-21T20:16:31.918Z,14.40
2019-04-21T20:18:24.475Z,15.48
2019-04-21T20:20:15.456Z,14.78
2019-04-21T20:22:16.892Z,15.45
2019-04-21T20:24:23.327Z,14.50
2019-04-21T20:26:33.106Z,14.40
2019-04-21T20:28:41.768Z,15.45
2019-04-21T20:30:43.782Z,14.47
2019-04-21T20:32:48.911Z,15.08
2019-04-21T20:34:55.579Z,13.93
2019-04-21T20:36:56.765Z,15.05
2019-04-21T20:38:49.056Z,15.13
2019-04-21T20:40:52.407Z,14.50
2019-04-21T20:43:09.175Z,15.05
2019-04-21T20:45:22.352Z,15.05
2019-04-21T20:47:07.795Z,15.50
2019-04-21T20:49:07.958Z,14.40
2019-04-21T20:51:18.400Z,14.58
2019-04-21T20:53:23.120Z,14.47
2019-04-21T20:55:18.670Z,14.65
2019-04-21T20:57:26.082Z,14.28
2019-04-21T20:59:30.393Z,15.28
2019-04-21T21:01:35.875Z,15.40
2019-04-21T21:03:39.323Z,14.25
2019-04-21T21:05:37.582Z,14.78
2019-04-21T21:07:50.233Z,14.45
2019-04-21T21:09:57.446Z,15.53
2019-04-21T21:12:11.357Z,15.43
2019-04-21T21:14:05.718Z,15.28
2019-04-21T21:16:10.263Z,15.38
2019-04-21T21:18:06.222Z,13.50
2019-04-21T21:20:07.428Z,15.53
2019-04-21T21:21:59.151Z,14.87
2019-04-21T21:24:10.170Z,15.40
2019-04-21T21:26:16.089Z,16.30
2019-04-21T21:28:10.411Z,16.40
2019-04-21T21:30:20.585Z,16.62
2019-04-21T21:32:30.306Z,16.05
2019-04-21T21:34:33.090Z,16.75
2019-04-21T21:36:33.587Z,17.32
2019-04-21T21:38:37.538Z,17.85
2019-04-21T21:40:38.289Z,18.50
2019-04-21T21:42:32.333Z,18.70
2019-04-21T21:44:31.907Z,19.15
2019-04-21T21:46:49.902Z,18.67
2019-04-21T21:48:51.672Z,19.00
2019-04-21T21:50:50.946Z,18.67
2019-04-21T21:52:57.550Z,17.32
2019-04-21T21:54:47.884Z,17.60
2019-04-21T21:59:01.292Z,17.20
2019-04-21T22:01:06.202Z,17.42
2019-04-21T22:03:14.962Z,18.27
2019-04-21T22:05:16.777Z,16.45
2019-04-21T22:07:16.112Z,17.10
2019-04-21T22:09:16.695Z,17.48
2019-04-21T22:11:18.108Z,18.32
2019-04-21T22:13:22.091Z,16.80
2019-04-21T22:15:26.364Z,18.27
2019-04-21T22:17:41.878Z,17.80
2019-04-21T22:19:52.319Z,17.85
2019-04-21T22:21:53.808Z,16.95
2019-04-21T22:23:47.804Z,16.48
2019-04-21T22:25:41.808Z,16.77
2019-04-21T22:27:43.446Z,17.10
2019-04-21T22:29:50.941Z,17.70
2019-04-21T22:31:48.357Z,17.82
2019-04-21T22:36:00.188Z,17.07
2019-04-21T22:38:12.348Z,17.98
2019-04-21T22:40:13.729Z,17.40
2019-04-21T22:42:13.378Z,15.40
2019-04-21T22:44:28.599Z,16.65
2019-04-21T22:46:30.652Z,17.52
2019-04-21T22:48:32.577Z,17.40
2019-04-21T22:50:38.291Z,18.17
2019-04-21T22:52:41.472Z,17.35
2019-04-21T22:54:44.906Z,17.32
2019-04-21T22:56:57.032Z,18.60
2019-04-21T22:58:51.299Z,21.30
2019-04-21T23:00:57.115Z,17.50
2019-04-21T23:03:03.822Z,19.98
2019-04-21T23:05:02.528Z,19.62
2019-04-21T23:07:10.231Z,18.12
2019-04-21T23:09:08.804Z,18.10
2019-04-21T23:11:12.553Z,18.42
2019-04-21T23:13:19.535Z,17.37
2019-04-21T23:15:19.442Z,18.35
2019-04-21T23:17:38.873Z,19.17
2019-04-21T23:19:38.860Z,18.17
2019-04-21T23:21:48.914Z,18.37
2019-04-21T23:23:50.167Z,17.48
2019-04-21T23:25:45.918Z,19.45
2019-04-21T23:27:58.458Z,18.98
2019-04-21T23:29:58.853Z,18.32
2019-04-21T23:31:59.262Z,17.98
2019-04-21T23:33:48.317Z,18.62
2019-04-21T23:36:00.921Z,17.75
2019-04-21T23:37:58.663Z,18.95
2019-04-21T23:40:01.148Z,17.92
2019-04-21T23:42:02.363Z,20.02
2019-04-21T23:44:06.882Z,16.62
2019-04-21T23:46:11.915Z,19.02
2019-04-21T23:48:23.535Z,18.77
2019-04-21T23:50:27.727Z,17.62
2019-04-21T23:52:17.832Z,17.62
2019-04-21T23:54:20.683Z,16.95
2019-04-21T23:58:29.977Z,16.17
